RYR5YX LIPZ-LIBD
Flight info
| Callsign | RYR5YX |
|---|---|
| Flight time | 1h 1m |
| Altitude | 35000 |
| Route | CHI DCT BELOV DCT ERITU DCT RUPAX DCT AFCAM DCT BEFHE DCT EKMUR |
| Aircraft | B738/M-SDE2E3FGHIRWXY/LB1 |
Departure
| Time | 2026-05-07 13:39 |
|---|---|
| Airport | Venice Marco Polo Airport (LIPZ) |
Arrival
| Time | 2026-05-07 14:41 |
|---|---|
| Airport | Bari Karol Wojtyła International Airport (LIBD) |
| Time | Latitude | Longitude | Altitude | Speed | Heading |
|---|---|---|---|---|---|
| 2026-05-07 13:31 | 45.49989 | 12.33835 | 8 ft | 0 kts | 311° |
| 2026-05-07 13:35 | 45.49990 | 12.33834 | 8 ft | 0 kts | 311° |
| 2026-05-07 13:36 | 45.49983 | 12.33812 | 8 ft | 4 kts | 204° |
| 2026-05-07 13:36 | 45.49937 | 12.33799 | 8 ft | 8 kts | 191° |
| 2026-05-07 13:36 | 45.49882 | 12.33783 | 8 ft | 7 kts | 191° |
| 2026-05-07 13:36 | 45.49832 | 12.33760 | 8 ft | 8 kts | 213° |
| 2026-05-07 13:37 | 45.49774 | 12.33697 | 8 ft | 10 kts | 220° |
| 2026-05-07 13:37 | 45.49713 | 12.33637 | 8 ft | 10 kts | 199° |
| 2026-05-07 13:37 | 45.49632 | 12.33635 | 8 ft | 13 kts | 163° |
| 2026-05-07 13:37 | 45.49561 | 12.33707 | 8 ft | 12 kts | 137° |
| 2026-05-07 13:38 | 45.49502 | 12.33789 | 8 ft | 11 kts | 132° |
| 2026-05-07 13:38 | 45.49484 | 12.33860 | 8 ft | 7 kts | 55° |
| 2026-05-07 13:38 | 45.49515 | 12.33904 | 8 ft | 4 kts | 42° |
| 2026-05-07 13:38 | 45.49548 | 12.33946 | 8 ft | 14 kts | 42° |
| 2026-05-07 13:39 | 45.49813 | 12.34289 | 8 ft | 87 kts | 41° |
| 2026-05-07 13:39 | 45.50429 | 12.35079 | 8 ft | 149 kts | 42° |
| 2026-05-07 13:39 | 45.51290 | 12.36144 | 391 ft | 166 kts | 41° |
| 2026-05-07 13:39 | 45.52115 | 12.37287 | 1015 ft | 169 kts | 45° |
| 2026-05-07 13:40 | 45.52966 | 12.38513 | 1256 ft | 186 kts | 47° |
| 2026-05-07 13:40 | 45.53656 | 12.40068 | 1783 ft | 192 kts | 75° |
| 2026-05-07 13:40 | 45.53633 | 12.42001 | 2186 ft | 201 kts | 101° |
| 2026-05-07 13:40 | 45.53358 | 12.43947 | 2708 ft | 205 kts | 101° |
| 2026-05-07 13:41 | 45.53085 | 12.45965 | 3207 ft | 210 kts | 100° |
| 2026-05-07 13:41 | 45.52853 | 12.47974 | 3880 ft | 205 kts | 99° |
| 2026-05-07 13:41 | 45.52635 | 12.50027 | 4212 ft | 219 kts | 102° |
| 2026-05-07 13:41 | 45.52072 | 12.52065 | 4581 ft | 228 kts | 130° |
| 2026-05-07 13:42 | 45.50801 | 12.53345 | 5178 ft | 227 kts | 160° |
| 2026-05-07 13:42 | 45.49223 | 12.53781 | 5563 ft | 240 kts | 180° |
| 2026-05-07 13:42 | 45.47525 | 12.53531 | 6034 ft | 250 kts | 191° |
| 2026-05-07 13:42 | 45.45768 | 12.53050 | 6415 ft | 265 kts | 192° |
| 2026-05-07 13:43 | 45.43911 | 12.52536 | 6810 ft | 280 kts | 191° |
| 2026-05-07 13:43 | 45.41940 | 12.52034 | 7210 ft | 295 kts | 191° |
| 2026-05-07 13:43 | 45.39865 | 12.51534 | 7578 ft | 310 kts | 191° |
| 2026-05-07 13:43 | 45.37692 | 12.51021 | 8005 ft | 323 kts | 191° |
| 2026-05-07 13:44 | 45.35463 | 12.50498 | 8641 ft | 329 kts | 191° |
| 2026-05-07 13:44 | 45.33192 | 12.49782 | 9059 ft | 340 kts | 199° |
| 2026-05-07 13:44 | 45.31016 | 12.48424 | 9665 ft | 345 kts | 210° |
| 2026-05-07 13:44 | 45.28945 | 12.46708 | 10369 ft | 348 kts | 213° |
| 2026-05-07 13:45 | 45.26915 | 12.44892 | 11326 ft | 344 kts | 214° |
| 2026-05-07 13:45 | 45.24938 | 12.43127 | 12439 ft | 336 kts | 214° |
| 2026-05-07 13:45 | 45.22983 | 12.41418 | 13439 ft | 331 kts | 213° |
| 2026-05-07 13:45 | 45.21006 | 12.39725 | 14163 ft | 336 kts | 213° |
| 2026-05-07 13:46 | 45.18998 | 12.38032 | 14915 ft | 339 kts | 213° |
| 2026-05-07 13:46 | 45.16971 | 12.36339 | 15705 ft | 341 kts | 213° |
| 2026-05-07 13:46 | 45.14926 | 12.34637 | 16430 ft | 345 kts | 213° |
| 2026-05-07 13:46 | 45.12857 | 12.32926 | 17193 ft | 347 kts | 212° |
| 2026-05-07 13:47 | 45.10688 | 12.31417 | 17893 ft | 353 kts | 205° |
| 2026-05-07 13:47 | 45.08287 | 12.30595 | 18607 ft | 362 kts | 189° |
| 2026-05-07 13:47 | 45.05755 | 12.30718 | 19325 ft | 371 kts | 175° |
| 2026-05-07 13:47 | 45.03234 | 12.31610 | 19956 ft | 380 kts | 166° |
| 2026-05-07 13:48 | 45.00792 | 12.33101 | 20623 ft | 387 kts | 159° |
| 2026-05-07 13:48 | 44.98415 | 12.34920 | 21203 ft | 393 kts | 155° |
| 2026-05-07 13:48 | 44.96057 | 12.36891 | 21800 ft | 397 kts | 154° |
| 2026-05-07 13:48 | 44.93696 | 12.38916 | 22334 ft | 401 kts | 155° |
| 2026-05-07 13:49 | 44.91313 | 12.40955 | 22940 ft | 403 kts | 155° |
| 2026-05-07 13:49 | 44.88920 | 12.42981 | 23597 ft | 403 kts | 156° |
| 2026-05-07 13:49 | 44.86511 | 12.44996 | 24114 ft | 406 kts | 156° |
| 2026-05-07 13:49 | 44.84074 | 12.47014 | 24593 ft | 410 kts | 156° |
| 2026-05-07 13:50 | 44.81610 | 12.49040 | 25104 ft | 413 kts | 156° |
| 2026-05-07 13:50 | 44.79125 | 12.51075 | 25604 ft | 416 kts | 156° |
| 2026-05-07 13:50 | 44.76618 | 12.53123 | 26057 ft | 419 kts | 156° |
| 2026-05-07 13:50 | 44.74098 | 12.55179 | 26531 ft | 422 kts | 156° |
| 2026-05-07 13:51 | 44.71554 | 12.57250 | 26947 ft | 426 kts | 156° |
| 2026-05-07 13:51 | 44.68991 | 12.59334 | 27369 ft | 429 kts | 156° |
| 2026-05-07 13:51 | 44.66407 | 12.61434 | 27824 ft | 431 kts | 156° |
| 2026-05-07 13:51 | 44.63800 | 12.63550 | 28223 ft | 434 kts | 157° |
| 2026-05-07 13:52 | 44.61189 | 12.65669 | 28667 ft | 436 kts | 158° |
| 2026-05-07 13:52 | 44.58564 | 12.67796 | 29061 ft | 439 kts | 158° |
| 2026-05-07 13:52 | 44.55947 | 12.70052 | 29364 ft | 447 kts | 154° |
| 2026-05-07 13:52 | 44.53424 | 12.72628 | 29744 ft | 454 kts | 149° |
| 2026-05-07 13:53 | 44.50985 | 12.75471 | 30070 ft | 460 kts | 146° |
| 2026-05-07 13:53 | 44.48606 | 12.78455 | 30473 ft | 463 kts | 144° |
| 2026-05-07 13:53 | 44.46248 | 12.81524 | 30827 ft | 466 kts | 144° |
| 2026-05-07 13:53 | 44.43901 | 12.84633 | 31187 ft | 468 kts | 144° |
| 2026-05-07 13:54 | 44.41534 | 12.87778 | 31456 ft | 472 kts | 143° |
| 2026-05-07 13:54 | 44.39149 | 12.90940 | 31825 ft | 473 kts | 144° |
| 2026-05-07 13:54 | 44.36749 | 12.94109 | 32110 ft | 477 kts | 144° |
| 2026-05-07 13:54 | 44.34334 | 12.97286 | 32449 ft | 478 kts | 144° |
| 2026-05-07 13:55 | 44.31907 | 13.00468 | 32923 ft | 476 kts | 144° |
| 2026-05-07 13:55 | 44.29495 | 13.03623 | 33399 ft | 474 kts | 144° |
| 2026-05-07 13:55 | 44.27092 | 13.06757 | 33841 ft | 473 kts | 145° |
| 2026-05-07 13:55 | 44.24686 | 13.09884 | 34180 ft | 474 kts | 144° |
| 2026-05-07 13:56 | 44.22272 | 13.13012 | 34514 ft | 473 kts | 145° |
| 2026-05-07 13:56 | 44.19867 | 13.16124 | 34866 ft | 472 kts | 144° |
| 2026-05-07 13:56 | 44.17462 | 13.19233 | 35174 ft | 472 kts | 144° |
| 2026-05-07 13:56 | 44.15055 | 13.22342 | 35533 ft | 469 kts | 144° |
| 2026-05-07 13:57 | 44.12658 | 13.25435 | 35838 ft | 469 kts | 144° |
| 2026-05-07 13:57 | 44.10274 | 13.28505 | 36098 ft | 469 kts | 144° |
| 2026-05-07 13:57 | 44.07883 | 13.31580 | 36442 ft | 468 kts | 144° |
| 2026-05-07 13:57 | 44.05495 | 13.34648 | 36760 ft | 468 kts | 144° |
| 2026-05-07 13:58 | 44.03107 | 13.37710 | 36973 ft | 469 kts | 144° |
| 2026-05-07 13:58 | 43.98306 | 13.43855 | 36979 ft | 470 kts | 144° |
| 2026-05-07 13:59 | 43.93532 | 13.49963 | 36980 ft | 468 kts | 144° |
| 2026-05-07 13:59 | 43.88721 | 13.56096 | 36976 ft | 471 kts | 144° |
| 2026-05-07 14:00 | 43.83931 | 13.62194 | 36978 ft | 468 kts | 144° |
| 2026-05-07 14:00 | 43.79128 | 13.68290 | 36975 ft | 469 kts | 144° |
| 2026-05-07 14:01 | 43.74326 | 13.74374 | 36978 ft | 469 kts | 144° |
| 2026-05-07 14:01 | 43.69507 | 13.80460 | 36984 ft | 470 kts | 144° |
| 2026-05-07 14:02 | 43.64688 | 13.86533 | 36983 ft | 470 kts | 144° |
| 2026-05-07 14:02 | 43.59868 | 13.92594 | 36982 ft | 470 kts | 144° |
| 2026-05-07 14:03 | 43.55035 | 13.98658 | 36982 ft | 471 kts | 144° |
| 2026-05-07 14:03 | 43.50206 | 14.04706 | 36988 ft | 471 kts | 144° |
| 2026-05-07 14:04 | 43.45353 | 14.10766 | 36992 ft | 472 kts | 144° |
| 2026-05-07 14:04 | 43.40484 | 14.16788 | 36988 ft | 472 kts | 145° |
| 2026-05-07 14:05 | 43.35568 | 14.22730 | 36983 ft | 471 kts | 146° |
| 2026-05-07 14:05 | 43.30643 | 14.28645 | 36978 ft | 472 kts | 146° |
| 2026-05-07 14:06 | 43.25695 | 14.34581 | 36985 ft | 474 kts | 145° |
| 2026-05-07 14:06 | 43.20763 | 14.40499 | 36981 ft | 472 kts | 145° |
| 2026-05-07 14:07 | 43.15813 | 14.46428 | 36977 ft | 473 kts | 145° |
| 2026-05-07 14:07 | 43.10869 | 14.52336 | 36975 ft | 473 kts | 145° |
| 2026-05-07 14:08 | 43.05918 | 14.58241 | 36976 ft | 474 kts | 145° |
| 2026-05-07 14:08 | 43.00956 | 14.64151 | 36976 ft | 474 kts | 145° |
| 2026-05-07 14:09 | 42.95982 | 14.70061 | 36973 ft | 475 kts | 146° |
| 2026-05-07 14:09 | 42.90995 | 14.75971 | 36976 ft | 476 kts | 146° |
| 2026-05-07 14:10 | 42.86007 | 14.81869 | 36969 ft | 475 kts | 146° |
| 2026-05-07 14:10 | 42.81009 | 14.87763 | 36968 ft | 477 kts | 146° |
| 2026-05-07 14:11 | 42.75989 | 14.93670 | 36969 ft | 480 kts | 147° |
| 2026-05-07 14:11 | 42.70954 | 14.99581 | 36967 ft | 479 kts | 147° |
| 2026-05-07 14:12 | 42.65909 | 15.05497 | 36969 ft | 480 kts | 147° |
| 2026-05-07 14:12 | 42.60854 | 15.11411 | 36970 ft | 483 kts | 147° |
| 2026-05-07 14:13 | 42.55761 | 15.17351 | 36969 ft | 484 kts | 147° |
| 2026-05-07 14:13 | 42.50655 | 15.23295 | 36968 ft | 486 kts | 147° |
| 2026-05-07 14:14 | 42.45546 | 15.29237 | 36646 ft | 483 kts | 147° |
| 2026-05-07 14:14 | 42.43019 | 15.32178 | 36185 ft | 478 kts | 147° |
| 2026-05-07 14:14 | 42.40517 | 15.35084 | 35698 ft | 476 kts | 147° |
| 2026-05-07 14:14 | 42.38008 | 15.37988 | 35035 ft | 478 kts | 147° |
| 2026-05-07 14:15 | 42.35483 | 15.40900 | 34307 ft | 482 kts | 147° |
| 2026-05-07 14:15 | 42.32930 | 15.43838 | 33418 ft | 486 kts | 147° |
| 2026-05-07 14:15 | 42.30332 | 15.46759 | 32539 ft | 488 kts | 148° |
| 2026-05-07 14:15 | 42.27634 | 15.49470 | 31715 ft | 485 kts | 152° |
| 2026-05-07 14:16 | 42.24838 | 15.51977 | 30856 ft | 484 kts | 154° |
| 2026-05-07 14:16 | 42.21998 | 15.54367 | 30160 ft | 480 kts | 155° |
| 2026-05-07 14:16 | 42.19179 | 15.56686 | 29681 ft | 473 kts | 155° |
| 2026-05-07 14:16 | 42.16396 | 15.58962 | 29139 ft | 467 kts | 155° |
| 2026-05-07 14:17 | 42.13640 | 15.61217 | 28580 ft | 462 kts | 155° |
| 2026-05-07 14:17 | 42.10919 | 15.63453 | 28026 ft | 457 kts | 154° |
| 2026-05-07 14:17 | 42.08228 | 15.65673 | 27474 ft | 452 kts | 155° |
| 2026-05-07 14:17 | 42.05570 | 15.67875 | 26923 ft | 447 kts | 154° |
| 2026-05-07 14:18 | 42.02943 | 15.70059 | 26374 ft | 442 kts | 154° |
| 2026-05-07 14:18 | 42.00356 | 15.72213 | 25829 ft | 436 kts | 154° |
| 2026-05-07 14:18 | 41.97801 | 15.74345 | 25284 ft | 432 kts | 154° |
| 2026-05-07 14:18 | 41.95308 | 15.76536 | 24767 ft | 428 kts | 151° |
| 2026-05-07 14:19 | 41.92961 | 15.78958 | 24237 ft | 427 kts | 144° |
| 2026-05-07 14:19 | 41.90805 | 15.81682 | 23701 ft | 425 kts | 140° |
| 2026-05-07 14:19 | 41.88790 | 15.84551 | 23182 ft | 422 kts | 137° |
| 2026-05-07 14:19 | 41.86850 | 15.87460 | 22660 ft | 418 kts | 136° |
| 2026-05-07 14:20 | 41.84950 | 15.90368 | 22135 ft | 414 kts | 135° |
| 2026-05-07 14:20 | 41.83075 | 15.93249 | 21614 ft | 410 kts | 135° |
| 2026-05-07 14:20 | 41.81212 | 15.96097 | 21091 ft | 405 kts | 136° |
| 2026-05-07 14:20 | 41.79363 | 15.98904 | 20575 ft | 401 kts | 135° |
| 2026-05-07 14:21 | 41.77527 | 16.01676 | 20060 ft | 397 kts | 135° |
| 2026-05-07 14:21 | 41.75704 | 16.04416 | 19544 ft | 394 kts | 135° |
| 2026-05-07 14:21 | 41.73896 | 16.07128 | 19022 ft | 390 kts | 136° |
| 2026-05-07 14:21 | 41.72100 | 16.09811 | 18496 ft | 387 kts | 135° |
| 2026-05-07 14:22 | 41.70314 | 16.12468 | 17983 ft | 383 kts | 136° |
| 2026-05-07 14:22 | 41.68543 | 16.15100 | 17467 ft | 380 kts | 135° |
| 2026-05-07 14:22 | 41.66785 | 16.17711 | 16950 ft | 377 kts | 135° |
| 2026-05-07 14:22 | 41.65040 | 16.20303 | 16437 ft | 374 kts | 136° |
| 2026-05-07 14:23 | 41.63310 | 16.22870 | 15922 ft | 371 kts | 136° |
| 2026-05-07 14:23 | 41.61591 | 16.25414 | 15414 ft | 369 kts | 135° |
| 2026-05-07 14:23 | 41.59887 | 16.27938 | 14905 ft | 366 kts | 135° |
| 2026-05-07 14:23 | 41.58194 | 16.30443 | 14391 ft | 363 kts | 135° |
| 2026-05-07 14:24 | 41.56511 | 16.32934 | 13893 ft | 360 kts | 135° |
| 2026-05-07 14:24 | 41.54844 | 16.35398 | 13401 ft | 358 kts | 135° |
| 2026-05-07 14:24 | 41.53191 | 16.37843 | 12917 ft | 355 kts | 135° |
| 2026-05-07 14:24 | 41.51507 | 16.40212 | 12407 ft | 351 kts | 137° |
| 2026-05-07 14:25 | 41.49757 | 16.42438 | 11919 ft | 347 kts | 140° |
| 2026-05-07 14:25 | 41.47970 | 16.44570 | 11445 ft | 344 kts | 141° |
| 2026-05-07 14:25 | 41.46185 | 16.46670 | 10955 ft | 342 kts | 140° |
| 2026-05-07 14:25 | 41.44426 | 16.48750 | 10574 ft | 336 kts | 140° |
| 2026-05-07 14:26 | 41.42720 | 16.50791 | 10403 ft | 324 kts | 140° |
| 2026-05-07 14:26 | 41.41182 | 16.52893 | 10274 ft | 312 kts | 131° |
| 2026-05-07 14:26 | 41.39956 | 16.55220 | 10175 ft | 301 kts | 124° |
| 2026-05-07 14:26 | 41.38920 | 16.57582 | 10017 ft | 293 kts | 121° |
| 2026-05-07 14:27 | 41.37927 | 16.59927 | 9638 ft | 291 kts | 122° |
| 2026-05-07 14:27 | 41.36914 | 16.62245 | 9283 ft | 290 kts | 123° |
| 2026-05-07 14:27 | 41.35883 | 16.64536 | 8925 ft | 288 kts | 123° |
| 2026-05-07 14:27 | 41.34846 | 16.66805 | 8561 ft | 286 kts | 124° |
| 2026-05-07 14:28 | 41.33818 | 16.69046 | 8225 ft | 283 kts | 124° |
| 2026-05-07 14:28 | 41.32798 | 16.71270 | 7871 ft | 281 kts | 123° |
| 2026-05-07 14:28 | 41.31784 | 16.73487 | 7536 ft | 280 kts | 123° |
| 2026-05-07 14:28 | 41.30777 | 16.75684 | 7178 ft | 278 kts | 123° |
| 2026-05-07 14:29 | 41.29779 | 16.77864 | 6826 ft | 275 kts | 123° |
| 2026-05-07 14:29 | 41.28791 | 16.80021 | 6506 ft | 273 kts | 123° |
| 2026-05-07 14:29 | 41.27936 | 16.82254 | 6159 ft | 272 kts | 112° |
| 2026-05-07 14:29 | 41.27661 | 16.84718 | 5851 ft | 274 kts | 86° |
| 2026-05-07 14:30 | 41.28164 | 16.87152 | 5530 ft | 275 kts | 71° |
| 2026-05-07 14:30 | 41.28902 | 16.89493 | 5214 ft | 274 kts | 69° |
| 2026-05-07 14:30 | 41.29632 | 16.91773 | 5092 ft | 263 kts | 70° |
| 2026-05-07 14:30 | 41.30331 | 16.93958 | 5072 ft | 250 kts | 69° |
| 2026-05-07 14:31 | 41.30999 | 16.96014 | 5076 ft | 235 kts | 70° |
| 2026-05-07 14:31 | 41.31641 | 16.97972 | 5084 ft | 231 kts | 70° |
| 2026-05-07 14:31 | 41.32276 | 16.99899 | 5009 ft | 223 kts | 70° |
| 2026-05-07 14:31 | 41.32888 | 17.01732 | 4888 ft | 213 kts | 70° |
| 2026-05-07 14:32 | 41.33398 | 17.03552 | 4610 ft | 207 kts | 85° |
| 2026-05-07 14:32 | 41.33207 | 17.05356 | 4328 ft | 195 kts | 124° |
| 2026-05-07 14:32 | 41.32210 | 17.06347 | 4198 ft | 175 kts | 167° |
| 2026-05-07 14:32 | 41.31011 | 17.06439 | 4010 ft | 172 kts | 181° |
| 2026-05-07 14:33 | 41.29814 | 17.06367 | 3996 ft | 173 kts | 183° |
| 2026-05-07 14:33 | 41.28625 | 17.05996 | 3992 ft | 176 kts | 195° |
| 2026-05-07 14:33 | 41.27430 | 17.05699 | 3996 ft | 174 kts | 181° |
| 2026-05-07 14:33 | 41.26219 | 17.05786 | 3997 ft | 176 kts | 172° |
| 2026-05-07 14:34 | 41.25023 | 17.06072 | 3995 ft | 174 kts | 168° |
| 2026-05-07 14:34 | 41.23879 | 17.06402 | 4000 ft | 159 kts | 168° |
| 2026-05-07 14:34 | 41.22850 | 17.06580 | 3987 ft | 141 kts | 183° |
| 2026-05-07 14:34 | 41.21966 | 17.06117 | 4003 ft | 141 kts | 212° |
| 2026-05-07 14:35 | 41.21274 | 17.05163 | 3883 ft | 147 kts | 232° |
| 2026-05-07 14:35 | 41.20965 | 17.03865 | 3710 ft | 151 kts | 256° |
| 2026-05-07 14:35 | 41.20812 | 17.02489 | 3546 ft | 151 kts | 252° |
| 2026-05-07 14:35 | 41.20596 | 17.01134 | 3389 ft | 150 kts | 251° |
| 2026-05-07 14:36 | 41.20378 | 16.99778 | 3233 ft | 150 kts | 251° |
| 2026-05-07 14:36 | 41.20161 | 16.98428 | 3078 ft | 149 kts | 247° |
| 2026-05-07 14:36 | 41.19816 | 16.97161 | 2929 ft | 144 kts | 240° |
| 2026-05-07 14:36 | 41.19437 | 16.95913 | 2780 ft | 146 kts | 243° |
| 2026-05-07 14:37 | 41.19092 | 16.94664 | 2640 ft | 146 kts | 243° |
| 2026-05-07 14:37 | 41.18391 | 16.92122 | 2319 ft | 145 kts | 243° |
| 2026-05-07 14:37 | 41.18035 | 16.90876 | 2194 ft | 143 kts | 242° |
| 2026-05-07 14:38 | 41.17671 | 16.89622 | 2080 ft | 147 kts | 242° |
| 2026-05-07 14:38 | 41.17307 | 16.88333 | 1918 ft | 152 kts | 243° |
| 2026-05-07 14:38 | 41.16938 | 16.87023 | 1641 ft | 149 kts | 243° |
| 2026-05-07 14:38 | 41.16580 | 16.85749 | 1431 ft | 145 kts | 244° |
| 2026-05-07 14:39 | 41.16241 | 16.84516 | 1239 ft | 141 kts | 244° |
| 2026-05-07 14:39 | 41.15891 | 16.83295 | 1058 ft | 142 kts | 243° |
| 2026-05-07 14:39 | 41.15538 | 16.82066 | 903 ft | 143 kts | 245° |
| 2026-05-07 14:39 | 41.15189 | 16.80828 | 725 ft | 143 kts | 245° |
| 2026-05-07 14:40 | 41.14847 | 16.79590 | 505 ft | 147 kts | 245° |
| 2026-05-07 14:40 | 41.14493 | 16.78333 | 312 ft | 145 kts | 246° |
| 2026-05-07 14:40 | 41.14140 | 16.77081 | 143 ft | 143 kts | 247° |
| 2026-05-07 14:40 | 41.13826 | 16.75972 | 147 ft | 103 kts | 249° |
| 2026-05-07 14:41 | 41.13638 | 16.75309 | 162 ft | 71 kts | 250° |
| 2026-05-07 14:41 | 41.13507 | 16.74852 | 177 ft | 25 kts | 250° |
| 2026-05-07 14:41 | 41.13417 | 16.74742 | 179 ft | 17 kts | 157° |
| 2026-05-07 14:41 | 41.13391 | 16.74778 | 179 ft | 0 kts | 119° |
| 2026-05-07 14:45 | 41.13371 | 16.74825 | 178 ft | 16 kts | 120° |
| 2026-05-07 14:46 | 41.13362 | 16.74986 | 174 ft | 19 kts | 70° |
| 2026-05-07 14:46 | 41.13424 | 16.75202 | 167 ft | 29 kts | 72° |
| 2026-05-07 14:46 | 41.13496 | 16.75466 | 159 ft | 31 kts | 70° |
| 2026-05-07 14:46 | 41.13575 | 16.75746 | 155 ft | 32 kts | 70° |
| 2026-05-07 14:47 | 41.13637 | 16.75980 | 150 ft | 17 kts | 85° |
| 2026-05-07 14:47 | 41.13593 | 16.76072 | 150 ft | 10 kts | 141° |
| 2026-05-07 14:47 | 41.13546 | 16.76140 | 151 ft | 9 kts | 132° |
| 2026-05-07 14:47 | 41.13496 | 16.76172 | 152 ft | 6 kts | 164° |
| 2026-05-07 14:48 | 41.13480 | 16.76178 | 152 ft | 0 kts | 164° |